sensor_id;sensor_type;location;lat;lon;timestamp;pressure;altitude;pressure_sealevel;temperature;humidity
20023;BME280;10172;42.054;24.546;2024-01-15T00:00:17;97776.41;;;0.75;58.33
20023;BME280;10172;42.054;24.546;2024-01-15T00:02:43;97782.38;;;0.54;59.03
20023;BME280;10172;42.054;24.546;2024-01-15T00:05:08;97776.19;;;0.43;59.97
20023;BME280;10172;42.054;24.546;2024-01-15T00:07:33;97787.13;;;0.57;59.36
20023;BME280;10172;42.054;24.546;2024-01-15T00:09:59;97776.03;;;0.17;60.89
20023;BME280;10172;42.054;24.546;2024-01-15T00:12:24;97772.22;;;0.57;59.14
20023;BME280;10172;42.054;24.546;2024-01-15T00:14:50;97768.78;;;0.90;58.59
20023;BME280;10172;42.054;24.546;2024-01-15T00:17:15;97777.94;;;0.71;58.44
20023;BME280;10172;42.054;24.546;2024-01-15T00:19:40;97772.28;;;0.46;59.05
20023;BME280;10172;42.054;24.546;2024-01-15T00:22:06;97771.00;;;0.15;61.00
20023;BME280;10172;42.054;24.546;2024-01-15T00:24:31;97770.94;;;0.27;59.73
20023;BME280;10172;42.054;24.546;2024-01-15T00:26:57;97763.59;;;0.57;59.44
20023;BME280;10172;42.054;24.546;2024-01-15T00:29:22;97768.75;;;0.19;60.22
20023;BME280;10172;42.054;24.546;2024-01-15T00:31:48;97772.38;;;0.18;60.96
20023;BME280;10172;42.054;24.546;2024-01-15T00:34:13;97771.56;;;0.17;61.31
20023;BME280;10172;42.054;24.546;2024-01-15T00:36:38;97764.28;;;0.36;60.26
20023;BME280;10172;42.054;24.546;2024-01-15T00:39:04;97766.34;;;0.34;59.71
20023;BME280;10172;42.054;24.546;2024-01-15T00:41:30;97761.63;;;0.64;59.65
20023;BME280;10172;42.054;24.546;2024-01-15T00:43:56;97763.94;;;-0.01;61.59
20023;BME280;10172;42.054;24.546;2024-01-15T00:46:21;97750.53;;;-0.21;61.95
20023;BME280;10172;42.054;24.546;2024-01-15T00:48:47;97759.72;;;-0.47;62.91
20023;BME280;10172;42.054;24.546;2024-01-15T00:51:12;97754.53;;;-0.30;62.46
20023;BME280;10172;42.054;24.546;2024-01-15T00:53:38;97733.88;;;-0.04;61.80
20023;BME280;10172;42.054;24.546;2024-01-15T00:56:04;97742.09;;;-0.40;61.97
20023;BME280;10172;42.054;24.546;2024-01-15T00:58:29;97737.44;;;-0.38;61.69
20023;BME280;10172;42.054;24.546;2024-01-15T01:00:54;97732.00;;;-0.76;62.56
20023;BME280;10172;42.054;24.546;2024-01-15T01:03:20;97734.13;;;-1.24;64.45
20023;BME280;10172;42.054;24.546;2024-01-15T01:05:48;97726.97;;;-1.06;64.32
20023;BME280;10172;42.054;24.546;2024-01-15T01:08:15;97724.38;;;-1.17;64.91
20023;BME280;10172;42.054;24.546;2024-01-15T01:10:40;97728.56;;;-0.65;63.24
20023;BME280;10172;42.054;24.546;2024-01-15T01:13:08;97721.34;;;-0.18;60.98
20023;BME280;10172;42.054;24.546;2024-01-15T01:15:34;97717.88;;;0.10;59.82
20023;BME280;10172;42.054;24.546;2024-01-15T01:17:59;97714.41;;;0.37;59.03
20023;BME280;10172;42.054;24.546;2024-01-15T01:20:24;97716.63;;;0.29;58.66
20023;BME280;10172;42.054;24.546;2024-01-15T01:22:50;97711.97;;;0.31;58.84
20023;BME280;10172;42.054;24.546;2024-01-15T01:25:15;97723.28;;;0.36;58.38
20023;BME280;10172;42.054;24.546;2024-01-15T01:27:41;97714.00;;;0.45;58.16
20023;BME280;10172;42.054;24.546;2024-01-15T01:30:06;97722.63;;;0.46;58.05
20023;BME280;10172;42.054;24.546;2024-01-15T01:32:32;97729.63;;;0.57;57.44
20023;BME280;10172;42.054;24.546;2024-01-15T01:34:57;97731.19;;;0.25;58.88
20023;BME280;10172;42.054;24.546;2024-01-15T01:37:23;97723.59;;;0.07;59.55
20023;BME280;10172;42.054;24.546;2024-01-15T01:39:48;97725.69;;;-0.07;59.82
20023;BME280;10172;42.054;24.546;2024-01-15T01:42:14;97741.03;;;-0.27;60.71
20023;BME280;10172;42.054;24.546;2024-01-15T01:44:39;97734.34;;;-0.63;61.51
20023;BME280;10172;42.054;24.546;2024-01-15T01:47:05;97733.66;;;-0.30;61.00
20023;BME280;10172;42.054;24.546;2024-01-15T01:49:31;97722.84;;;-0.79;62.92
20023;BME280;10172;42.054;24.546;2024-01-15T01:51:58;97726.34;;;-0.45;62.04
20023;BME280;10172;42.054;24.546;2024-01-15T01:54:26;97723.41;;;-0.20;61.60
20023;BME280;10172;42.054;24.546;2024-01-15T01:56:54;97725.78;;;-0.47;62.94
20023;BME280;10172;42.054;24.546;2024-01-15T01:59:21;97725.03;;;-0.31;62.06
20023;BME280;10172;42.054;24.546;2024-01-15T02:01:48;97721.31;;;-0.35;62.42
20023;BME280;10172;42.054;24.546;2024-01-15T02:04:15;97717.91;;;-1.03;65.91
20023;BME280;10172;42.054;24.546;2024-01-15T02:06:40;97709.03;;;-0.91;65.12
20023;BME280;10172;42.054;24.546;2024-01-15T02:09:07;97719.38;;;-1.07;65.34
20023;BME280;10172;42.054;24.546;2024-01-15T02:11:33;97723.53;;;-0.95;64.58
20023;BME280;10172;42.054;24.546;2024-01-15T02:13:58;97714.13;;;-0.56;63.23
20023;BME280;10172;42.054;24.546;2024-01-15T02:16:24;97718.88;;;-0.81;64.12
20023;BME280;10172;42.054;24.546;2024-01-15T02:18:49;97704.81;;;-0.92;64.04
20023;BME280;10172;42.054;24.546;2024-01-15T02:21:15;97708.03;;;-1.01;64.43
20023;BME280;10172;42.054;24.546;2024-01-15T02:23:41;97707.91;;;-1.06;64.36
20023;BME280;10172;42.054;24.546;2024-01-15T02:26:07;97704.22;;;-1.22;64.37
20023;BME280;10172;42.054;24.546;2024-01-15T02:28:33;97711.38;;;-1.29;64.94
20023;BME280;10172;42.054;24.546;2024-01-15T02:30:58;97706.59;;;-1.20;64.84
20023;BME280;10172;42.054;24.546;2024-01-15T02:33:24;97714.63;;;-1.10;64.81
20023;BME280;10172;42.054;24.546;2024-01-15T02:35:49;97721.78;;;-1.64;66.60
20023;BME280;10172;42.054;24.546;2024-01-15T02:38:17;97709.78;;;-1.42;65.76
20023;BME280;10172;42.054;24.546;2024-01-15T02:40:44;97711.63;;;-2.07;68.40
20023;BME280;10172;42.054;24.546;2024-01-15T02:43:10;97710.69;;;-1.48;66.58
20023;BME280;10172;42.054;24.546;2024-01-15T02:45:35;97699.16;;;-0.89;64.16
20023;BME280;10172;42.054;24.546;2024-01-15T02:48:01;97700.91;;;-1.17;64.96
20023;BME280;10172;42.054;24.546;2024-01-15T02:50:26;97696.03;;;-1.14;64.33
20023;BME280;10172;42.054;24.546;2024-01-15T02:52:52;97690.13;;;-0.98;63.73
20023;BME280;10172;42.054;24.546;2024-01-15T02:55:17;97692.69;;;-0.86;63.74
20023;BME280;10172;42.054;24.546;2024-01-15T02:57:43;97692.19;;;-0.72;63.74
20023;BME280;10172;42.054;24.546;2024-01-15T03:00:08;97701.66;;;-0.94;64.38
20023;BME280;10172;42.054;24.546;2024-01-15T03:02:38;97701.00;;;-0.61;62.18
20023;BME280;10172;42.054;24.546;2024-01-15T03:05:08;97707.78;;;-0.32;61.96
20023;BME280;10172;42.054;24.546;2024-01-15T03:07:33;97705.94;;;-0.48;61.66
20023;BME280;10172;42.054;24.546;2024-01-15T03:09:59;97704.72;;;-0.29;61.26
20023;BME280;10172;42.054;24.546;2024-01-15T03:12:24;97712.47;;;-0.74;62.92
20023;BME280;10172;42.054;24.546;2024-01-15T03:14:50;97705.94;;;-0.48;62.49
20023;BME280;10172;42.054;24.546;2024-01-15T03:17:15;97707.72;;;-0.20;61.12
20023;BME280;10172;42.054;24.546;2024-01-15T03:19:40;97702.75;;;-0.78;62.74
20023;BME280;10172;42.054;24.546;2024-01-15T03:22:06;97702.09;;;-0.85;62.93
20023;BME280;10172;42.054;24.546;2024-01-15T03:24:34;97690.94;;;-1.90;66.67
20023;BME280;10172;42.054;24.546;2024-01-15T03:27:00;97688.94;;;-1.42;65.22
20023;BME280;10172;42.054;24.546;2024-01-15T03:29:26;97683.44;;;-1.05;64.36
20023;BME280;10172;42.054;24.546;2024-01-15T03:31:51;97695.72;;;-1.17;64.13
20023;BME280;10172;42.054;24.546;2024-01-15T03:34:17;97695.75;;;-2.28;67.79
20023;BME280;10172;42.054;24.546;2024-01-15T03:36:42;97706.91;;;-2.10;68.71
20023;BME280;10172;42.054;24.546;2024-01-15T03:39:08;97706.50;;;-1.60;67.25
20023;BME280;10172;42.054;24.546;2024-01-15T03:41:33;97703.66;;;-1.24;65.21
20023;BME280;10172;42.054;24.546;2024-01-15T03:43:58;97700.78;;;-1.11;65.17
20023;BME280;10172;42.054;24.546;2024-01-15T03:46:24;97691.03;;;-1.04;64.96
20023;BME280;10172;42.054;24.546;2024-01-15T03:48:49;97689.09;;;-1.08;64.23
20023;BME280;10172;42.054;24.546;2024-01-15T03:51:17;97688.22;;;-1.02;64.01
20023;BME280;10172;42.054;24.546;2024-01-15T03:53:43;97686.34;;;-0.90;64.14
20023;BME280;10172;42.054;24.546;2024-01-15T03:56:08;97700.56;;;-1.21;63.82
20023;BME280;10172;42.054;24.546;2024-01-15T03:58:33;97689.16;;;-1.31;64.57
20023;BME280;10172;42.054;24.546;2024-01-15T04:00:59;97686.75;;;-1.10;63.88
20023;BME280;10172;42.054;24.546;2024-01-15T04:03:24;97683.16;;;-0.92;63.08
20023;BME280;10172;42.054;24.546;2024-01-15T04:05:49;97681.59;;;-0.93;63.30
20023;BME280;10172;42.054;24.546;2024-01-15T04:08:15;97658.88;;;-0.81;62.53
20023;BME280;10172;42.054;24.546;2024-01-15T04:10:40;97671.72;;;-1.31;64.23
20023;BME280;10172;42.054;24.546;2024-01-15T04:13:06;97670.81;;;-1.48;64.85
20023;BME280;10172;42.054;24.546;2024-01-15T04:15:32;97658.69;;;-1.54;65.91
20023;BME280;10172;42.054;24.546;2024-01-15T04:17:57;97655.22;;;-1.08;63.50
20023;BME280;10172;42.054;24.546;2024-01-15T04:20:22;97658.50;;;-0.73;62.56
20023;BME280;10172;42.054;24.546;2024-01-15T04:22:48;97647.91;;;-0.95;62.21
20023;BME280;10172;42.054;24.546;2024-01-15T04:25:13;97645.25;;;-0.83;62.03
20023;BME280;10172;42.054;24.546;2024-01-15T04:27:39;97650.06;;;-0.92;62.16
20023;BME280;10172;42.054;24.546;2024-01-15T04:30:04;97646.00;;;-0.99;62.91
20023;BME280;10172;42.054;24.546;2024-01-15T04:32:30;97640.53;;;-0.86;62.16
20023;BME280;10172;42.054;24.546;2024-01-15T04:34:55;97641.56;;;-1.27;63.60
20023;BME280;10172;42.054;24.546;2024-01-15T04:37:21;97634.31;;;-1.37;64.59
20023;BME280;10172;42.054;24.546;2024-01-15T04:39:46;97625.19;;;-1.62;64.15
20023;BME280;10172;42.054;24.546;2024-01-15T04:42:11;97618.63;;;-1.13;63.34
20023;BME280;10172;42.054;24.546;2024-01-15T04:44:37;97612.75;;;-0.64;61.73
20023;BME280;10172;42.054;24.546;2024-01-15T04:47:02;97626.81;;;-0.65;61.31
20023;BME280;10172;42.054;24.546;2024-01-15T04:49:28;97642.09;;;-0.85;61.40
20023;BME280;10172;42.054;24.546;2024-01-15T04:51:54;97634.19;;;-0.90;62.12
20023;BME280;10172;42.054;24.546;2024-01-15T04:54:19;97629.00;;;-0.74;60.84
20023;BME280;10172;42.054;24.546;2024-01-15T04:56:45;97626.78;;;-0.82;61.17
20023;BME280;10172;42.054;24.546;2024-01-15T04:59:11;97636.16;;;-0.69;61.42
20023;BME280;10172;42.054;24.546;2024-01-15T05:01:36;97637.97;;;-0.70;61.82
20023;BME280;10172;42.054;24.546;2024-01-15T05:04:02;97639.44;;;-0.45;60.90
20023;BME280;10172;42.054;24.546;2024-01-15T05:06:28;97643.13;;;-0.58;61.38
20023;BME280;10172;42.054;24.546;2024-01-15T05:08:53;97636.81;;;-0.62;61.41
20023;BME280;10172;42.054;24.546;2024-01-15T05:11:19;97636.19;;;-0.52;60.97
20023;BME280;10172;42.054;24.546;2024-01-15T05:13:44;97629.78;;;-0.45;61.61
20023;BME280;10172;42.054;24.546;2024-01-15T05:16:09;97625.88;;;-0.59;61.90
20023;BME280;10172;42.054;24.546;2024-01-15T05:18:35;97615.03;;;-1.24;64.04
20023;BME280;10172;42.054;24.546;2024-01-15T05:21:02;97609.19;;;-0.75;63.26
20023;BME280;10172;42.054;24.546;2024-01-15T05:23:28;97600.47;;;-0.80;63.67
20023;BME280;10172;42.054;24.546;2024-01-15T05:25:53;97608.78;;;-0.67;64.26
20023;BME280;10172;42.054;24.546;2024-01-15T05:28:19;97610.06;;;-0.69;64.03
20023;BME280;10172;42.054;24.546;2024-01-15T05:30:44;97615.66;;;-0.77;63.59
20023;BME280;10172;42.054;24.546;2024-01-15T05:33:09;97617.44;;;-0.49;62.31
20023;BME280;10172;42.054;24.546;2024-01-15T05:35:35;97636.63;;;-0.72;63.54
20023;BME280;10172;42.054;24.546;2024-01-15T05:38:01;97630.59;;;-0.73;63.27
20023;BME280;10172;42.054;24.546;2024-01-15T05:40:28;97634.91;;;-0.78;63.57
20023;BME280;10172;42.054;24.546;2024-01-15T05:42:53;97634.81;;;-0.72;63.00
20023;BME280;10172;42.054;24.546;2024-01-15T05:45:18;97643.50;;;-0.66;62.38
20023;BME280;10172;42.054;24.546;2024-01-15T05:47:44;97642.78;;;-0.61;63.08
20023;BME280;10172;42.054;24.546;2024-01-15T05:50:10;97640.09;;;-0.67;62.04
20023;BME280;10172;42.054;24.546;2024-01-15T05:52:35;97631.00;;;-1.20;64.69
20023;BME280;10172;42.054;24.546;2024-01-15T05:55:01;97628.53;;;-1.27;64.81
20023;BME280;10172;42.054;24.546;2024-01-15T05:57:27;97621.97;;;-1.01;63.71
20023;BME280;10172;42.054;24.546;2024-01-15T05:59:53;97611.44;;;-1.06;63.95
20023;BME280;10172;42.054;24.546;2024-01-15T06:02:18;97608.19;;;-1.13;63.67
20023;BME280;10172;42.054;24.546;2024-01-15T06:04:44;97596.25;;;-0.98;63.26
20023;BME280;10172;42.054;24.546;2024-01-15T06:07:09;97613.72;;;-1.38;65.04
20023;BME280;10172;42.054;24.546;2024-01-15T06:09:34;97616.09;;;-1.48;65.08
20023;BME280;10172;42.054;24.546;2024-01-15T06:12:00;97619.00;;;-1.33;65.36
20023;BME280;10172;42.054;24.546;2024-01-15T06:14:25;97624.72;;;-1.08;64.29
20023;BME280;10172;42.054;24.546;2024-01-15T06:16:52;97627.72;;;-1.27;64.75
20023;BME280;10172;42.054;24.546;2024-01-15T06:19:17;97638.75;;;-1.49;64.84
20023;BME280;10172;42.054;24.546;2024-01-15T06:21:43;97642.59;;;-1.51;66.38
20023;BME280;10172;42.054;24.546;2024-01-15T06:24:08;97636.91;;;-1.25;64.48
20023;BME280;10172;42.054;24.546;2024-01-15T06:26:35;97639.84;;;-1.21;64.54
20023;BME280;10172;42.054;24.546;2024-01-15T06:29:01;97642.38;;;-1.50;66.14
20023;BME280;10172;42.054;24.546;2024-01-15T06:31:26;97651.56;;;-1.82;67.07
20023;BME280;10172;42.054;24.546;2024-01-15T06:33:51;97644.97;;;-1.26;65.14
20023;BME280;10172;42.054;24.546;2024-01-15T06:36:17;97644.94;;;-1.15;64.31
20023;BME280;10172;42.054;24.546;2024-01-15T06:38:45;97631.72;;;-0.97;63.62
20023;BME280;10172;42.054;24.546;2024-01-15T06:41:11;97622.50;;;-0.88;63.65
20023;BME280;10172;42.054;24.546;2024-01-15T06:43:36;97626.81;;;-1.21;64.69
20023;BME280;10172;42.054;24.546;2024-01-15T06:46:02;97633.69;;;-1.67;66.90
20023;BME280;10172;42.054;24.546;2024-01-15T06:48:27;97631.03;;;-1.32;64.77
20023;BME280;10172;42.054;24.546;2024-01-15T06:50:52;97643.03;;;-1.31;65.25
20023;BME280;10172;42.054;24.546;2024-01-15T06:53:18;97634.72;;;-1.16;65.04
20023;BME280;10172;42.054;24.546;2024-01-15T06:55:43;97642.84;;;-1.53;66.34
20023;BME280;10172;42.054;24.546;2024-01-15T06:58:09;97645.00;;;-1.73;68.31
20023;BME280;10172;42.054;24.546;2024-01-15T07:00:34;97642.38;;;-2.31;69.82
20023;BME280;10172;42.054;24.546;2024-01-15T07:02:59;97614.47;;;-1.38;66.43
20023;BME280;10172;42.054;24.546;2024-01-15T07:05:25;97606.84;;;-1.16;66.04
20023;BME280;10172;42.054;24.546;2024-01-15T07:07:50;97622.78;;;-1.01;65.88
20023;BME280;10172;42.054;24.546;2024-01-15T07:10:16;97610.41;;;-1.33;66.07
20023;BME280;10172;42.054;24.546;2024-01-15T07:12:42;97610.19;;;-1.04;65.90
20023;BME280;10172;42.054;24.546;2024-01-15T07:15:08;97612.28;;;-1.17;67.33
20023;BME280;10172;42.054;24.546;2024-01-15T07:17:34;97615.56;;;-0.82;66.42
20023;BME280;10172;42.054;24.546;2024-01-15T07:19:59;97631.13;;;-1.27;67.51
20023;BME280;10172;42.054;24.546;2024-01-15T07:22:24;97627.22;;;-1.13;66.94
20023;BME280;10172;42.054;24.546;2024-01-15T07:24:50;97624.88;;;-1.14;66.80
20023;BME280;10172;42.054;24.546;2024-01-15T07:27:15;97621.88;;;-1.06;66.66
20023;BME280;10172;42.054;24.546;2024-01-15T07:29:41;97625.41;;;-0.56;64.92
20023;BME280;10172;42.054;24.546;2024-01-15T07:32:07;97621.22;;;-0.85;65.64
20023;BME280;10172;42.054;24.546;2024-01-15T07:34:33;97627.25;;;-0.40;65.02
20023;BME280;10172;42.054;24.546;2024-01-15T07:36:58;97620.69;;;-0.26;64.44
20023;BME280;10172;42.054;24.546;2024-01-15T07:39:24;97605.50;;;-0.45;64.98
20023;BME280;10172;42.054;24.546;2024-01-15T07:41:51;97598.88;;;-0.03;64.31
20023;BME280;10172;42.054;24.546;2024-01-15T07:44:16;97614.84;;;0.00;63.47
20023;BME280;10172;42.054;24.546;2024-01-15T07:46:46;97618.00;;;-0.14;64.35
20023;BME280;10172;42.054;24.546;2024-01-15T07:49:11;97614.06;;;0.00;64.25
20023;BME280;10172;42.054;24.546;2024-01-15T07:51:37;97629.22;;;0.20;63.22
20023;BME280;10172;42.054;24.546;2024-01-15T07:54:02;97648.00;;;0.55;62.45
20023;BME280;10172;42.054;24.546;2024-01-15T07:56:28;97656.06;;;0.32;63.00
20023;BME280;10172;42.054;24.546;2024-01-15T07:58:53;97654.00;;;0.00;63.09
20023;BME280;10172;42.054;24.546;2024-01-15T08:01:19;97669.31;;;-0.81;65.56
20023;BME280;10172;42.054;24.546;2024-01-15T08:03:44;97669.66;;;-0.33;64.24
20023;BME280;10172;42.054;24.546;2024-01-15T08:06:10;97684.56;;;-0.45;65.35
20023;BME280;10172;42.054;24.546;2024-01-15T08:08:36;97689.22;;;-0.02;63.69
20023;BME280;10172;42.054;24.546;2024-01-15T08:11:02;97679.88;;;0.52;62.02
20023;BME280;10172;42.054;24.546;2024-01-15T08:13:27;97672.53;;;0.71;62.74
20023;BME280;10172;42.054;24.546;2024-01-15T08:15:53;97684.66;;;0.98;61.79
20023;BME280;10172;42.054;24.546;2024-01-15T08:18:18;97678.06;;;0.74;61.02
20023;BME280;10172;42.054;24.546;2024-01-15T08:20:43;97687.59;;;1.02;61.20
20023;BME280;10172;42.054;24.546;2024-01-15T08:23:09;97682.94;;;0.65;61.62
20023;BME280;10172;42.054;24.546;2024-01-15T08:25:34;97671.44;;;1.31;60.54
20023;BME280;10172;42.054;24.546;2024-01-15T08:28:00;97669.63;;;0.89;61.04
20023;BME280;10172;42.054;24.546;2024-01-15T08:30:25;97661.13;;;0.98;60.62
20023;BME280;10172;42.054;24.546;2024-01-15T08:32:56;97654.72;;;1.32;60.40
20023;BME280;10172;42.054;24.546;2024-01-15T08:35:21;97640.78;;;1.54;59.50
20023;BME280;10172;42.054;24.546;2024-01-15T08:37:51;97641.28;;;1.02;61.50
20023;BME280;10172;42.054;24.546;2024-01-15T08:40:17;97644.34;;;1.43;60.69
20023;BME280;10172;42.054;24.546;2024-01-15T08:42:43;97639.75;;;1.86;59.00
20023;BME280;10172;42.054;24.546;2024-01-15T08:45:09;97635.31;;;1.87;59.32
20023;BME280;10172;42.054;24.546;2024-01-15T08:47:34;97631.06;;;1.81;58.62
20023;BME280;10172;42.054;24.546;2024-01-15T08:50:00;97636.03;;;2.09;57.08
20023;BME280;10172;42.054;24.546;2024-01-15T08:52:26;97631.72;;;1.98;56.71
20023;BME280;10172;42.054;24.546;2024-01-15T08:54:51;97628.28;;;0.64;62.06
20023;BME280;10172;42.054;24.546;2024-01-15T08:57:17;97628.44;;;0.57;63.62
20023;BME280;10172;42.054;24.546;2024-01-15T08:59:42;97620.41;;;1.07;62.50
20023;BME280;10172;42.054;24.546;2024-01-15T09:02:08;97619.91;;;1.32;61.43
20023;BME280;10172;42.054;24.546;2024-01-15T09:04:33;97624.44;;;1.68;60.40
20023;BME280;10172;42.054;24.546;2024-01-15T09:06:59;97631.44;;;1.36;60.80
20023;BME280;10172;42.054;24.546;2024-01-15T09:09:24;97641.53;;;1.49;61.21
20023;BME280;10172;42.054;24.546;2024-01-15T09:11:50;97634.34;;;1.13;62.28
20023;BME280;10172;42.054;24.546;2024-01-15T09:14:16;97619.56;;;1.28;62.75
20023;BME280;10172;42.054;24.546;2024-01-15T09:16:41;97618.19;;;1.43;62.19
20023;BME280;10172;42.054;24.546;2024-01-15T09:19:07;97614.84;;;1.84;60.76
20023;BME280;10172;42.054;24.546;2024-01-15T09:21:32;97616.16;;;1.81;60.71
20023;BME280;10172;42.054;24.546;2024-01-15T09:23:58;97610.78;;;1.98;59.98
20023;BME280;10172;42.054;24.546;2024-01-15T09:26:23;97610.53;;;1.68;60.82
20023;BME280;10172;42.054;24.546;2024-01-15T09:28:49;97606.94;;;1.79;59.91
20023;BME280;10172;42.054;24.546;2024-01-15T09:31:14;97613.09;;;1.63;61.08
20023;BME280;10172;42.054;24.546;2024-01-15T09:33:40;97610.00;;;1.39;61.79
20023;BME280;10172;42.054;24.546;2024-01-15T09:36:05;97610.34;;;1.48;62.41
20023;BME280;10172;42.054;24.546;2024-01-15T09:38:31;97615.56;;;0.94;64.27
20023;BME280;10172;42.054;24.546;2024-01-15T09:40:57;97598.16;;;1.31;64.12
20023;BME280;10172;42.054;24.546;2024-01-15T09:43:23;97595.59;;;1.36;62.89
20023;BME280;10172;42.054;24.546;2024-01-15T09:45:49;97585.06;;;1.95;60.71
20023;BME280;10172;42.054;24.546;2024-01-15T09:48:15;97584.25;;;2.31;59.63
20023;BME280;10172;42.054;24.546;2024-01-15T09:50:40;97575.75;;;2.09;59.11
20023;BME280;10172;42.054;24.546;2024-01-15T09:53:05;97577.13;;;2.22;58.70
20023;BME280;10172;42.054;24.546;2024-01-15T09:55:32;97570.31;;;2.72;57.30
20023;BME280;10172;42.054;24.546;2024-01-15T09:57:59;97564.91;;;1.95;57.55
20023;BME280;10172;42.054;24.546;2024-01-15T10:00:26;97553.59;;;1.85;58.40
20023;BME280;10172;42.054;24.546;2024-01-15T10:02:52;97552.72;;;2.68;57.05
20023;BME280;10172;42.054;24.546;2024-01-15T10:05:17;97551.81;;;3.50;53.52
20023;BME280;10172;42.054;24.546;2024-01-15T10:07:43;97554.44;;;3.39;53.81
20023;BME280;10172;42.054;24.546;2024-01-15T10:10:11;97549.94;;;3.10;54.96
20023;BME280;10172;42.054;24.546;2024-01-15T10:12:36;97544.72;;;3.25;54.55
20023;BME280;10172;42.054;24.546;2024-01-15T10:15:03;97533.06;;;2.81;56.15
20023;BME280;10172;42.054;24.546;2024-01-15T10:17:29;97538.16;;;3.27;54.42
20023;BME280;10172;42.054;24.546;2024-01-15T10:19:56;97527.38;;;3.19;57.40
20023;BME280;10172;42.054;24.546;2024-01-15T10:22:22;97505.34;;;3.70;54.16
20023;BME280;10172;42.054;24.546;2024-01-15T10:24:48;97488.91;;;4.19;52.32
20023;BME280;10172;42.054;24.546;2024-01-15T10:27:14;97483.69;;;4.14;51.76
20023;BME280;10172;42.054;24.546;2024-01-15T10:29:41;97473.97;;;4.09;50.16
20023;BME280;10172;42.054;24.546;2024-01-15T10:32:07;97455.00;;;4.71;48.54
20023;BME280;10172;42.054;24.546;2024-01-15T10:34:37;97447.88;;;4.76;47.02
20023;BME280;10172;42.054;24.546;2024-01-15T10:37:03;97420.97;;;4.46;47.02
20023;BME280;10172;42.054;24.546;2024-01-15T10:39:29;97429.72;;;5.14;47.30
20023;BME280;10172;42.054;24.546;2024-01-15T10:41:55;97417.31;;;5.48;46.31
20023;BME280;10172;42.054;24.546;2024-01-15T10:44:21;97403.44;;;5.90;46.68
20023;BME280;10172;42.054;24.546;2024-01-15T10:46:46;97416.91;;;6.12;46.04
20023;BME280;10172;42.054;24.546;2024-01-15T10:49:12;97411.53;;;6.22;43.61
20023;BME280;10172;42.054;24.546;2024-01-15T10:51:38;97408.06;;;6.03;44.78
20023;BME280;10172;42.054;24.546;2024-01-15T10:54:04;97408.66;;;6.19;43.61
20023;BME280;10172;42.054;24.546;2024-01-15T10:56:32;97405.53;;;6.17;43.33
20023;BME280;10172;42.054;24.546;2024-01-15T10:58:59;97415.91;;;6.08;43.25
20023;BME280;10172;42.054;24.546;2024-01-15T11:01:25;97393.22;;;5.60;44.81
20023;BME280;10172;42.054;24.546;2024-01-15T11:03:51;97403.72;;;5.65;44.91
20023;BME280;10172;42.054;24.546;2024-01-15T11:06:17;97403.88;;;6.21;44.64
20023;BME280;10172;42.054;24.546;2024-01-15T11:08:48;97383.16;;;6.51;43.00
20023;BME280;10172;42.054;24.546;2024-01-15T11:11:16;97413.06;;;6.23;42.77
20023;BME280;10172;42.054;24.546;2024-01-15T11:13:41;97406.63;;;5.34;44.48
20023;BME280;10172;42.054;24.546;2024-01-15T11:16:11;97409.69;;;4.79;46.80
20023;BME280;10172;42.054;24.546;2024-01-15T11:18:40;97401.00;;;5.17;46.52
20023;BME280;10172;42.054;24.546;2024-01-15T11:26:31;97383.50;;;6.45;43.65
20023;BME280;10172;42.054;24.546;2024-01-15T11:28:59;97368.31;;;5.71;44.99
20023;BME280;10172;42.054;24.546;2024-01-15T11:31:29;97370.66;;;6.20;44.54
20023;BME280;10172;42.054;24.546;2024-01-15T11:34:14;97375.22;;;6.33;45.43
20023;BME280;10172;42.054;24.546;2024-01-15T11:41:52;97374.31;;;6.42;43.28
20023;BME280;10172;42.054;24.546;2024-01-15T11:44:17;97363.34;;;6.72;43.14
20023;BME280;10172;42.054;24.546;2024-01-15T11:46:59;97364.34;;;6.58;43.63
20023;BME280;10172;42.054;24.546;2024-01-15T11:52:16;97361.13;;;6.42;44.80
20023;BME280;10172;42.054;24.546;2024-01-15T11:55:26;97356.06;;;6.64;44.67
20023;BME280;10172;42.054;24.546;2024-01-15T11:57:46;97371.41;;;6.62;44.76
20023;BME280;10172;42.054;24.546;2024-01-15T12:00:14;97363.53;;;6.76;44.12
20023;BME280;10172;42.054;24.546;2024-01-15T12:02:42;97374.19;;;6.34;45.58
20023;BME280;10172;42.054;24.546;2024-01-15T12:05:12;97360.38;;;6.18;45.31
20023;BME280;10172;42.054;24.546;2024-01-15T12:07:42;97367.69;;;6.26;46.11
20023;BME280;10172;42.054;24.546;2024-01-15T12:10:09;97373.44;;;6.28;45.68
20023;BME280;10172;42.054;24.546;2024-01-15T12:13:00;97364.53;;;6.24;45.81
20023;BME280;10172;42.054;24.546;2024-01-15T12:15:28;97370.72;;;5.96;46.80
20023;BME280;10172;42.054;24.546;2024-01-15T12:17:58;97358.00;;;5.74;47.62
20023;BME280;10172;42.054;24.546;2024-01-15T12:20:25;97358.16;;;5.83;48.01
20023;BME280;10172;42.054;24.546;2024-01-15T12:40:24;97346.44;;;6.18;46.12
20023;BME280;10172;42.054;24.546;2024-01-15T12:42:50;97345.69;;;5.93;47.90
20023;BME280;10172;42.054;24.546;2024-01-15T12:45:15;97342.69;;;6.00;46.61
20023;BME280;10172;42.054;24.546;2024-01-15T12:47:41;97339.41;;;5.66;48.04
20023;BME280;10172;42.054;24.546;2024-01-15T12:50:08;97341.59;;;5.82;48.71
20023;BME280;10172;42.054;24.546;2024-01-15T12:52:34;97341.63;;;6.01;47.64
20023;BME280;10172;42.054;24.546;2024-01-15T12:54:59;97337.25;;;5.44;49.03
20023;BME280;10172;42.054;24.546;2024-01-15T12:57:25;97333.34;;;5.65;48.74
20023;BME280;10172;42.054;24.546;2024-01-15T12:59:50;97321.22;;;5.88;48.14
20023;BME280;10172;42.054;24.546;2024-01-15T13:02:16;97314.13;;;5.83;48.45
20023;BME280;10172;42.054;24.546;2024-01-15T13:04:42;97326.94;;;5.71;48.13
20023;BME280;10172;42.054;24.546;2024-01-15T13:07:08;97322.13;;;5.55;48.55
20023;BME280;10172;42.054;24.546;2024-01-15T13:09:34;97314.72;;;5.33;49.07
20023;BME280;10172;42.054;24.546;2024-01-15T13:12:00;97307.59;;;5.33;48.88
20023;BME280;10172;42.054;24.546;2024-01-15T13:14:26;97311.53;;;5.60;48.03
20023;BME280;10172;42.054;24.546;2024-01-15T13:16:52;97304.28;;;5.70;46.77
20023;BME280;10172;42.054;24.546;2024-01-15T13:19:19;97301.09;;;5.49;48.17